Time;durP1;ratioP1;P1;durP2;ratioP2;P2;SDS_P1;SDS_P2;PMS_P1;PMS_P2;Temp;Humidity;BMP_temperature;BMP_pressure;BME280_temperature;BME280_humidity;BME280_pressure;Samples;Min_cycle;Max_cycle;Signal;HPM_P1;HPM_P2
2023/02/02 00:01:22;;;;;;;3.10;1.23;;;7.80;99.90;;;;;;4966386;28;20030;-78
2023/02/02 00:03:49;;;;;;;8.40;1.23;;;7.80;99.90;;;;;;4969501;28;20398;-78
2023/02/02 00:06:20;;;;;;;3.10;1.00;;;7.70;99.90;;;;;;4947693;28;20019;-78
2023/02/02 00:08:46;;;;;;;4.38;0.93;;;7.80;99.90;;;;;;4952492;28;20049;-78
2023/02/02 00:11:12;;;;;;;4.50;1.33;;;7.80;99.90;;;;;;4948318;28;20038;-78
2023/02/02 00:13:39;;;;;;;4.88;1.00;;;7.80;99.90;;;;;;4952369;28;20049;-78
2023/02/02 00:16:53;;;;;;;1.42;1.00;;;7.80;99.90;;;;;;4948061;28;20027;-78
2023/02/02 00:19:26;;;;;;;12.40;1.38;;;7.70;99.90;;;;;;4869263;29;20078;-78
2023/02/02 00:21:53;;;;;;;5.28;0.73;;;7.70;99.90;;;;;;4964283;28;20197;-78
2023/02/02 00:24:20;;;;;;;11.85;1.13;;;7.80;99.90;;;;;;4963211;28;20031;-78
2023/02/02 00:26:50;;;;;;;6.25;1.38;;;7.80;99.90;;;;;;4951259;28;20034;-78
2023/02/02 00:29:26;;;;;;;3.20;1.38;;;7.80;99.90;;;;;;4946835;28;20039;-78
2023/02/02 00:31:53;;;;;;;12.40;1.80;;;7.80;99.90;;;;;;4952996;28;20027;-78
2023/02/02 00:34:19;;;;;;;0.65;0.55;;;7.80;99.90;;;;;;4934043;28;20034;-78
2023/02/02 00:36:46;;;;;;;0.55;0.38;;;7.80;99.90;;;;;;4939619;29;20563;-78
2023/02/02 00:39:17;;;;;;;2.30;0.95;;;7.80;99.90;;;;;;4943960;28;20424;-78
2023/02/02 00:41:43;;;;;;;10.93;1.50;;;7.80;99.90;;;;;;4951428;28;20078;-78
2023/02/02 00:46:53;;;;;;;9.57;1.92;;;7.80;99.90;;;;;;4968872;28;20038;-77
2023/02/02 00:49:19;;;;;;;7.43;1.73;;;7.90;99.90;;;;;;4962600;28;20622;-77
2023/02/02 00:51:44;;;;;;;1.42;0.80;;;7.80;99.90;;;;;;4951165;28;20034;-77
2023/02/02 00:54:10;;;;;;;10.40;1.48;;;7.70;99.90;;;;;;4963911;28;20047;-77
2023/02/02 00:56:36;;;;;;;9.05;1.17;;;7.70;99.90;;;;;;4949300;28;20042;-77
2023/02/02 00:59:02;;;;;;;3.97;1.33;;;7.70;99.90;;;;;;4931352;28;20459;-78
2023/02/02 01:01:28;;;;;;;2.97;0.90;;;7.70;99.90;;;;;;4966102;28;20041;-77
2023/02/02 01:03:53;;;;;;;3.33;1.27;;;7.70;99.90;;;;;;4948757;28;20069;-78
2023/02/02 01:06:19;;;;;;;7.80;1.08;;;7.70;99.90;;;;;;4964634;28;20458;-78
2023/02/02 01:08:45;;;;;;;5.25;1.30;;;7.80;99.90;;;;;;4965928;28;20541;-78
2023/02/02 01:11:11;;;;;;;11.88;0.73;;;7.80;99.90;;;;;;4954223;28;20069;-77
2023/02/02 01:13:37;;;;;;;3.05;1.25;;;7.80;99.90;;;;;;4958276;28;20038;-78
2023/02/02 01:16:04;;;;;;;13.50;1.40;;;7.80;99.90;;;;;;4963889;28;20038;-78
2023/02/02 01:18:30;;;;;;;8.30;1.48;;;7.80;99.90;;;;;;4967129;28;20097;-78
2023/02/02 01:21:02;;;;;;;3.97;0.98;;;7.90;99.90;;;;;;4946949;28;20031;-77
2023/02/02 01:23:29;;;;;;;12.95;0.80;;;7.90;99.90;;;;;;4951396;28;20053;-77
2023/02/02 01:25:57;;;;;;;6.28;1.88;;;7.80;99.90;;;;;;4930992;28;20423;-77
2023/02/02 01:28:24;;;;;;;4.72;1.00;;;7.90;99.90;;;;;;4950295;28;20045;-78
2023/02/02 01:30:50;;;;;;;7.20;1.63;;;7.90;99.90;;;;;;4922793;29;20038;-78
2023/02/02 01:33:17;;;;;;;5.57;1.30;;;7.90;99.90;;;;;;4953286;28;20105;-78
2023/02/02 01:35:52;;;;;;;1.88;1.63;;;8.00;99.90;;;;;;4946942;28;20031;-78
2023/02/02 01:38:18;;;;;;;9.82;1.45;;;8.00;99.90;;;;;;4965276;28;20035;-78
2023/02/02 01:40:50;;;;;;;1.27;0.60;;;8.00;99.90;;;;;;4946531;28;20057;-80
2023/02/02 01:43:28;;;;;;;7.90;1.07;;;8.10;99.90;;;;;;4965859;28;20037;-78
2023/02/02 01:45:56;;;;;;;3.42;0.85;;;8.00;99.90;;;;;;4963760;28;20943;-78
2023/02/02 01:48:28;;;;;;;1.73;1.00;;;8.00;99.90;;;;;;4949843;28;20491;-78
2023/02/02 01:51:00;;;;;;;9.57;1.90;;;8.00;99.90;;;;;;4931030;28;20062;-78
2023/02/02 01:53:28;;;;;;;5.15;1.35;;;8.00;99.90;;;;;;4967790;28;20047;-78
2023/02/02 01:55:54;;;;;;;5.40;1.23;;;7.90;99.90;;;;;;4946463;28;20038;-78
2023/02/02 01:58:28;;;;;;;2.95;1.10;;;8.00;99.90;;;;;;4950084;28;20030;-77
2023/02/02 02:00:54;;;;;;;5.90;1.25;;;8.00;99.90;;;;;;4946574;28;20102;-77
2023/02/02 02:03:25;;;;;;;6.63;1.00;;;8.10;99.90;;;;;;4950383;28;20102;-77
2023/02/02 02:06:00;;;;;;;9.67;1.20;;;8.00;99.90;;;;;;4947525;28;20031;-77
2023/02/02 02:08:38;;;;;;;2.25;1.42;;;8.00;99.90;;;;;;4935168;29;20049;-77
2023/02/02 02:11:05;;;;;;;2.58;1.20;;;8.00;99.90;;;;;;4957506;28;20428;-77
2023/02/02 02:16:34;;;;;;;4.70;1.02;;;8.00;99.90;;;;;;4942443;28;20046;-78
2023/02/02 02:26:34;;;;;;;2.75;0.90;;;8.10;99.90;;;;;;4960419;28;20410;-77
2023/02/02 02:29:58;;;;;;;5.70;2.00;;;8.00;99.90;;;;;;4947038;28;20027;-77
2023/02/02 02:32:37;;;;;;;10.60;1.55;;;8.00;99.90;;;;;;4932742;29;20042;-78
2023/02/02 02:35:26;;;;;;;8.35;1.85;;;8.10;99.90;;;;;;4943737;28;20102;-77
2023/02/02 02:38:08;;;;;;;23.23;1.17;;;8.10;99.90;;;;;;4947656;28;20039;-78
2023/02/02 02:40:50;;;;;;;4.47;1.20;;;8.10;99.90;;;;;;4945892;28;20626;-78
2023/02/02 02:43:24;;;;;;;7.18;1.42;;;8.00;99.90;;;;;;4941720;28;20041;-78
2023/02/02 02:45:50;;;;;;;2.88;1.40;;;8.10;99.90;;;;;;4950230;28;20553;-78
2023/02/02 02:48:16;;;;;;;6.03;1.25;;;8.00;99.90;;;;;;4952281;28;20177;-78
2023/02/02 02:50:42;;;;;;;9.68;2.60;;;8.00;99.90;;;;;;4974801;28;20113;-78
2023/02/02 02:53:17;;;;;;;10.68;1.05;;;8.00;99.90;;;;;;4952673;28;20506;-78
2023/02/02 02:56:21;;;;;;;5.75;1.33;;;8.00;99.90;;;;;;4950290;28;20042;-78
2023/02/02 02:59:01;;;;;;;5.85;1.15;;;8.00;99.90;;;;;;4953408;28;20027;-78
2023/02/02 03:01:39;;;;;;;6.72;0.95;;;8.00;99.90;;;;;;4945312;28;20043;-78
2023/02/02 03:04:20;;;;;;;8.20;1.25;;;8.00;99.90;;;;;;4951917;28;20023;-78
2023/02/02 03:07:03;;;;;;;6.38;1.35;;;8.00;99.90;;;;;;4969886;28;20049;-78
2023/02/02 03:09:35;;;;;;;5.10;1.58;;;7.90;99.90;;;;;;4944862;28;20035;-78
2023/02/02 03:12:02;;;;;;;3.78;1.15;;;7.90;99.90;;;;;;4955627;28;20101;-78
2023/02/02 03:14:27;;;;;;;4.72;1.13;;;8.00;99.90;;;;;;4947423;29;20034;-78
2023/02/02 03:16:53;;;;;;;1.77;0.73;;;7.90;99.90;;;;;;4970664;28;20109;-78
2023/02/02 03:19:19;;;;;;;5.80;1.60;;;7.90;99.90;;;;;;4961219;28;20041;-77
2023/02/02 03:21:44;;;;;;;4.90;0.80;;;7.80;99.90;;;;;;4957617;28;20492;-78
2023/02/02 03:24:10;;;;;;;12.82;2.72;;;7.80;99.90;;;;;;4945869;28;20031;-77
2023/02/02 03:26:36;;;;;;;1.05;0.73;;;7.80;99.90;;;;;;4959579;28;20511;-78
2023/02/02 03:29:02;;;;;;;4.00;1.05;;;7.80;99.90;;;;;;4944874;28;20062;-78
2023/02/02 03:31:29;;;;;;;8.52;1.95;;;7.90;99.90;;;;;;4950684;28;20030;-78
2023/02/02 03:33:55;;;;;;;6.35;1.02;;;7.90;99.90;;;;;;4951759;28;20038;-77
2023/02/02 03:36:21;;;;;;;1.38;0.63;;;7.80;99.90;;;;;;4948968;28;20081;-79
2023/02/02 03:38:47;;;;;;;8.85;2.72;;;7.80;99.90;;;;;;4951342;28;20042;-81
2023/02/02 03:41:12;;;;;;;2.78;1.25;;;7.80;99.90;;;;;;4965888;28;20030;-81
2023/02/02 03:43:38;;;;;;;5.90;2.28;;;7.70;99.90;;;;;;4964903;28;20446;-82
2023/02/02 03:46:05;;;;;;;5.32;0.93;;;7.70;99.90;;;;;;4965741;28;20026;-81
2023/02/02 03:48:35;;;;;;;1.52;0.70;;;7.70;99.90;;;;;;4937765;29;20534;-81
2023/02/02 03:51:10;;;;;;;1.30;0.45;;;7.60;99.90;;;;;;4960482;28;20400;-81
2023/02/02 03:53:37;;;;;;;4.18;0.93;;;7.60;99.90;;;;;;4960442;28;20031;-81
2023/02/02 03:56:03;;;;;;;0.85;0.73;;;7.70;99.90;;;;;;4972978;28;20376;-82
2023/02/02 03:58:29;;;;;;;10.93;1.60;;;7.70;99.90;;;;;;4957947;28;20039;-81
2023/02/02 04:01:03;;;;;;;16.02;1.55;;;7.70;99.90;;;;;;4966931;28;20460;-82
2023/02/02 04:03:28;;;;;;;14.10;1.60;;;7.70;99.90;;;;;;4954356;28;20054;-81
2023/02/02 04:05:54;;;;;;;3.75;1.30;;;7.80;99.90;;;;;;4953563;28;20023;-82
2023/02/02 04:08:20;;;;;;;2.63;1.20;;;7.80;99.90;;;;;;4953236;28;20046;-80
2023/02/02 04:10:45;;;;;;;3.83;1.00;;;7.80;99.90;;;;;;4941077;29;20035;-81
2023/02/02 04:13:11;;;;;;;8.40;2.03;;;7.80;99.90;;;;;;4940825;28;20600;-80
2023/02/02 04:15:37;;;;;;;5.13;1.85;;;7.80;99.90;;;;;;4965068;28;20514;-79
2023/02/02 04:18:03;;;;;;;7.43;0.82;;;7.80;99.90;;;;;;4965394;28;20477;-80
2023/02/02 04:20:28;;;;;;;7.50;1.35;;;7.80;99.90;;;;;;4964959;28;20110;-79
2023/02/02 04:22:54;;;;;;;6.95;0.85;;;7.90;99.90;;;;;;4973649;23;20058;-79
2023/02/02 04:25:20;;;;;;;9.13;1.30;;;7.90;99.90;;;;;;4967768;28;20245;-80
2023/02/02 04:27:45;;;;;;;7.10;1.38;;;7.90;99.90;;;;;;4965504;28;20035;-81
2023/02/02 04:30:11;;;;;;;8.50;1.42;;;7.80;99.90;;;;;;4964936;28;20151;-80
2023/02/02 04:32:37;;;;;;;3.47;1.33;;;7.80;99.90;;;;;;4965546;28;20027;-80
2023/02/02 04:35:03;;;;;;;6.00;1.20;;;7.80;99.90;;;;;;4964903;28;20134;-81
2023/02/02 04:37:32;;;;;;;3.60;1.15;;;7.80;99.90;;;;;;4964970;28;20035;-81
2023/02/02 04:39:58;;;;;;;3.75;2.20;;;7.80;99.90;;;;;;4964583;28;20097;-81
2023/02/02 04:42:24;;;;;;;10.40;1.42;;;7.80;99.90;;;;;;4965871;28;20555;-81
2023/02/02 04:44:49;;;;;;;2.75;0.57;;;7.90;99.90;;;;;;4963309;28;20089;-81
2023/02/02 04:47:15;;;;;;;2.25;1.00;;;7.90;99.90;;;;;;4965223;28;20510;-80
2023/02/02 04:49:41;;;;;;;2.38;1.20;;;7.90;99.90;;;;;;4963133;28;20100;-82
2023/02/02 04:52:07;;;;;;;2.45;1.05;;;8.00;99.90;;;;;;4948167;28;20053;-81
2023/02/02 04:54:33;;;;;;;5.22;1.05;;;8.00;99.90;;;;;;4966578;28;20030;-81
2023/02/02 04:56:58;;;;;;;4.40;1.20;;;8.00;99.90;;;;;;4963255;28;20051;-80
2023/02/02 04:59:28;;;;;;;12.55;1.55;;;8.00;99.90;;;;;;4965555;28;20117;-79
2023/02/02 05:01:58;;;;;;;9.55;0.93;;;8.00;99.90;;;;;;4967785;28;20026;-79
2023/02/02 05:04:24;;;;;;;13.30;1.70;;;8.00;99.90;;;;;;4947217;28;20157;-79
2023/02/02 05:06:50;;;;;;;0.52;0.43;;;8.00;99.90;;;;;;4967925;28;20483;-79
2023/02/02 05:09:15;;;;;;;3.35;0.93;;;8.10;99.90;;;;;;4956379;28;20031;-79
2023/02/02 05:11:43;;;;;;;1.75;0.93;;;8.00;99.90;;;;;;4965932;28;20090;-80
2023/02/02 05:14:10;;;;;;;2.75;0.85;;;8.00;99.90;;;;;;4964124;28;20113;-79
2023/02/02 05:16:36;;;;;;;1.35;0.85;;;8.10;99.90;;;;;;4958645;28;20035;-78
2023/02/02 05:19:02;;;;;;;1.98;0.68;;;8.10;99.90;;;;;;4962315;28;20424;-79
2023/02/02 05:21:28;;;;;;;11.18;1.58;;;8.10;99.90;;;;;;4957337;28;20761;-80
2023/02/02 05:23:54;;;;;;;1.27;0.60;;;8.10;99.90;;;;;;4963995;28;20041;-78
2023/02/02 05:26:25;;;;;;;4.97;1.00;;;8.10;99.90;;;;;;4967199;28;20033;-78
2023/02/02 05:28:51;;;;;;;7.20;1.02;;;8.10;99.90;;;;;;4963707;28;20601;-78
2023/02/02 05:31:18;;;;;;;0.85;0.40;;;8.20;99.90;;;;;;4966173;28;20093;-78
2023/02/02 05:33:44;;;;;;;4.18;1.33;;;8.10;99.90;;;;;;4963858;28;20122;-79
2023/02/02 05:36:10;;;;;;;0.70;0.47;;;8.20;99.90;;;;;;4965679;28;20145;-79
2023/02/02 05:38:36;;;;;;;8.07;1.35;;;8.20;99.90;;;;;;4951140;28;20083;-79
2023/02/02 05:41:02;;;;;;;2.70;0.47;;;8.20;99.90;;;;;;4938574;28;20046;-77
2023/02/02 05:43:31;;;;;;;3.95;1.20;;;8.10;99.90;;;;;;4957541;28;20042;-78
2023/02/02 05:45:57;;;;;;;4.22;0.63;;;8.20;99.90;;;;;;4958972;28;20155;-77
2023/02/02 05:48:22;;;;;;;0.70;0.40;;;8.10;99.90;;;;;;4970928;28;20507;-77
2023/02/02 05:51:04;;;;;;;2.45;0.82;;;8.10;99.90;;;;;;4962708;28;20035;-77
2023/02/02 05:53:30;;;;;;;8.57;1.95;;;8.10;99.90;;;;;;4937410;29;20126;-78
2023/02/02 05:55:56;;;;;;;3.95;1.88;;;8.20;99.90;;;;;;4958233;28;20031;-76
2023/02/02 05:58:22;;;;;;;7.57;1.42;;;8.10;99.90;;;;;;4963697;28;20038;-74
2023/02/02 06:00:48;;;;;;;10.30;1.65;;;8.20;99.90;;;;;;4963373;28;20046;-75
2023/02/02 06:03:14;;;;;;;2.47;0.93;;;8.10;99.90;;;;;;4942261;28;20062;-75
2023/02/02 06:05:40;;;;;;;1.85;0.98;;;8.10;99.90;;;;;;4915917;28;20143;-75
2023/02/02 06:08:05;;;;;;;4.65;0.88;;;8.10;99.90;;;;;;4948582;28;20043;-74
2023/02/02 06:10:31;;;;;;;3.38;1.23;;;8.10;99.90;;;;;;4948235;28;20066;-75
2023/02/02 06:12:57;;;;;;;11.30;1.58;;;8.10;99.90;;;;;;4959536;28;20113;-76
2023/02/02 06:15:23;;;;;;;5.35;0.88;;;8.10;99.90;;;;;;4958407;28;20023;-74
2023/02/02 06:17:49;;;;;;;8.20;2.20;;;8.10;99.90;;;;;;4966489;28;20070;-74
2023/02/02 06:20:14;;;;;;;4.28;0.90;;;8.00;99.90;;;;;;4967381;28;20045;-75
2023/02/02 06:22:42;;;;;;;6.40;0.82;;;8.00;99.90;;;;;;4961964;28;20130;-74
2023/02/02 06:25:08;;;;;;;10.57;1.58;;;8.00;99.90;;;;;;4966797;28;20028;-74
2023/02/02 06:27:34;;;;;;;5.32;1.60;;;8.10;99.90;;;;;;4958624;28;20543;-74
2023/02/02 06:30:00;;;;;;;4.00;0.93;;;8.10;99.90;;;;;;4952226;28;20257;-74
2023/02/02 06:32:29;;;;;;;6.28;1.73;;;8.10;99.90;;;;;;4966784;28;20403;-74
2023/02/02 06:34:55;;;;;;;1.30;0.52;;;8.00;99.90;;;;;;4966526;28;20050;-75
2023/02/02 06:37:21;;;;;;;1.95;0.60;;;8.00;99.90;;;;;;4960837;28;20035;-75
2023/02/02 06:39:46;;;;;;;0.85;0.63;;;8.00;99.90;;;;;;4953856;28;20035;-75
2023/02/02 06:42:12;;;;;;;5.75;1.23;;;8.00;99.90;;;;;;4948500;28;20042;-73
2023/02/02 06:44:38;;;;;;;9.93;1.30;;;8.00;99.90;;;;;;4968202;28;20804;-74
2023/02/02 06:47:03;;;;;;;1.05;0.73;;;8.00;99.90;;;;;;4963651;28;20027;-75
2023/02/02 06:49:29;;;;;;;2.00;0.60;;;7.90;99.90;;;;;;4968788;28;20031;-74
2023/02/02 06:51:55;;;;;;;1.73;0.90;;;8.00;99.90;;;;;;4963769;28;20031;-75
2023/02/02 06:54:20;;;;;;;3.03;0.93;;;8.00;99.90;;;;;;4970420;28;20046;-75
2023/02/02 06:56:46;;;;;;;2.42;0.47;;;8.00;99.90;;;;;;4962083;28;20050;-74
2023/02/02 06:59:12;;;;;;;5.30;0.70;;;7.90;99.90;;;;;;4954740;28;20043;-74
2023/02/02 07:01:37;;;;;;;3.55;1.85;;;7.90;99.90;;;;;;4942393;29;20468;-75
2023/02/02 07:04:03;;;;;;;4.57;1.10;;;7.90;99.90;;;;;;4971274;28;20034;-75
2023/02/02 07:06:29;;;;;;;5.35;1.33;;;7.90;99.90;;;;;;4961880;28;20059;-74
2023/02/02 07:08:59;;;;;;;3.30;1.20;;;8.00;99.90;;;;;;4947870;28;20280;-74
2023/02/02 07:11:25;;;;;;;1.37;0.93;;;7.90;99.90;;;;;;4960229;28;20529;-75
2023/02/02 07:13:51;;;;;;;6.32;0.85;;;7.90;99.90;;;;;;4953997;28;20708;-76
2023/02/02 07:16:18;;;;;;;6.20;1.25;;;8.00;99.90;;;;;;4962398;28;20023;-75
2023/02/02 07:18:47;;;;;;;2.10;1.05;;;7.90;99.90;;;;;;4963848;28;20125;-74
2023/02/02 07:21:22;;;;;;;5.72;0.50;;;7.90;99.90;;;;;;4950915;28;20019;-70
2023/02/02 07:23:48;;;;;;;4.28;0.85;;;7.90;99.90;;;;;;4955449;28;20030;-74
2023/02/02 07:26:16;;;;;;;2.35;0.95;;;7.80;99.90;;;;;;4963317;28;20037;-72
2023/02/02 07:28:42;;;;;;;3.30;0.68;;;7.80;99.90;;;;;;4965671;28;20042;-72
2023/02/02 07:31:26;;;;;;;5.18;1.50;;;7.90;99.90;;;;;;4964007;28;20095;-72
2023/02/02 07:33:53;;;;;;;8.00;1.10;;;8.00;99.90;;;;;;4965729;28;20035;-72
2023/02/02 07:36:22;;;;;;;7.47;1.38;;;8.00;99.90;;;;;;4965528;28;20515;-72
2023/02/02 07:38:56;;;;;;;8.57;1.25;;;8.00;99.90;;;;;;4963409;28;20119;-73
2023/02/02 07:41:23;;;;;;;3.15;0.77;;;8.00;99.90;;;;;;4947165;28;20150;-73
2023/02/02 07:43:49;;;;;;;7.57;1.25;;;8.10;99.90;;;;;;4961725;28;20034;-73
2023/02/02 07:46:16;;;;;;;1.05;0.68;;;8.10;99.90;;;;;;4955293;28;20035;-71
2023/02/02 07:48:42;;;;;;;2.40;0.85;;;8.10;99.90;;;;;;4963579;28;20070;-69
2023/02/02 07:51:13;;;;;;;7.15;0.88;;;8.10;99.90;;;;;;4963654;28;20460;-70
2023/02/02 07:53:43;;;;;;;1.23;0.80;;;8.10;99.90;;;;;;4966777;28;20499;-70
2023/02/02 07:56:13;;;;;;;0.75;0.75;;;8.10;99.90;;;;;;4947737;28;20052;-70
2023/02/02 07:58:40;;;;;;;8.07;1.13;;;8.10;99.90;;;;;;4966750;28;20038;-71
2023/02/02 08:01:08;;;;;;;4.53;1.27;;;8.10;99.90;;;;;;4964772;28;20073;-70
2023/02/02 08:03:36;;;;;;;1.65;0.73;;;8.10;99.90;;;;;;4949785;28;20522;-70
2023/02/02 08:06:09;;;;;;;2.00;1.13;;;8.10;99.90;;;;;;4964760;28;20023;-71
2023/02/02 08:08:34;;;;;;;2.95;1.33;;;8.10;99.90;;;;;;4962785;28;20121;-70
2023/02/02 08:11:00;;;;;;;6.43;1.42;;;8.10;99.90;;;;;;4954784;28;20119;-70
2023/02/02 08:13:26;;;;;;;3.42;1.20;;;8.10;99.90;;;;;;4952849;28;20447;-70
2023/02/02 08:15:51;;;;;;;6.63;2.03;;;8.10;99.90;;;;;;4956711;28;20034;-69
2023/02/02 08:18:17;;;;;;;15.15;2.47;;;8.10;99.90;;;;;;4959709;28;20042;-70
2023/02/02 08:20:43;;;;;;;2.85;1.02;;;8.10;99.90;;;;;;4972343;28;20081;-70
2023/02/02 08:23:14;;;;;;;1.55;1.25;;;8.20;99.90;;;;;;4966520;28;20064;-70
2023/02/02 08:25:40;;;;;;;2.30;0.88;;;8.20;99.90;;;;;;4964311;28;20037;-70
2023/02/02 08:28:06;;;;;;;8.40;1.08;;;8.20;99.90;;;;;;4963243;28;20105;-71
2023/02/02 08:30:34;;;;;;;2.25;0.65;;;8.20;99.90;;;;;;4952978;28;20035;-70
2023/02/02 08:33:00;;;;;;;1.65;0.50;;;8.10;99.90;;;;;;4949755;28;20494;-69
2023/02/02 08:35:25;;;;;;;5.60;1.45;;;8.20;99.90;;;;;;4952734;28;20110;-69
2023/02/02 08:37:51;;;;;;;1.60;0.95;;;8.20;99.90;;;;;;4951017;28;20400;-70
2023/02/02 08:40:17;;;;;;;7.82;1.42;;;8.20;99.90;;;;;;4963478;28;20049;-70
2023/02/02 08:42:45;;;;;;;2.90;1.08;;;8.20;99.90;;;;;;4969449;28;20462;-69
2023/02/02 08:45:10;;;;;;;4.93;1.20;;;8.20;99.90;;;;;;4963181;28;20192;-69
2023/02/02 08:47:36;;;;;;;5.70;1.20;;;8.20;99.90;;;;;;4969262;28;20113;-70
2023/02/02 08:50:02;;;;;;;1.73;0.52;;;8.20;99.90;;;;;;4962162;28;20039;-70
2023/02/02 08:52:28;;;;;;;12.65;1.15;;;8.30;99.90;;;;;;4970713;28;20094;-70
2023/02/02 08:54:53;;;;;;;5.18;2.53;;;8.30;99.90;;;;;;4957830;28;20158;-70
2023/02/02 08:57:19;;;;;;;2.50;1.05;;;8.30;99.90;;;;;;4971317;28;20034;-69
2023/02/02 08:59:45;;;;;;;1.48;0.65;;;8.30;99.90;;;;;;4960858;28;20047;-70
2023/02/02 09:02:12;;;;;;;10.20;1.10;;;8.40;99.90;;;;;;4954124;28;20053;-71
2023/02/02 09:04:39;;;;;;;1.00;0.60;;;8.40;99.90;;;;;;4961279;28;20480;-70
2023/02/02 09:07:05;;;;;;;5.00;1.48;;;8.40;99.90;;;;;;4966894;28;20495;-69
2023/02/02 09:09:31;;;;;;;1.85;0.40;;;8.50;99.90;;;;;;4960211;28;20038;-71
2023/02/02 09:11:57;;;;;;;8.25;1.17;;;8.60;99.90;;;;;;4953575;28;20043;-71
2023/02/02 09:14:23;;;;;;;4.95;0.93;;;8.60;99.90;;;;;;4959966;28;20031;-70
2023/02/02 09:16:48;;;;;;;2.40;0.98;;;8.70;99.90;;;;;;4965934;28;20038;-69
2023/02/02 09:19:14;;;;;;;3.33;0.93;;;8.70;99.90;;;;;;4964168;28;20121;-69
2023/02/02 09:21:40;;;;;;;7.45;1.13;;;8.70;99.90;;;;;;4966544;28;20031;-72
2023/02/02 09:24:11;;;;;;;5.05;0.88;;;8.70;99.90;;;;;;4965392;28;20029;-70
2023/02/02 09:26:39;;;;;;;3.08;0.80;;;8.70;99.90;;;;;;4964329;28;20110;-69
2023/02/02 09:29:07;;;;;;;2.72;1.33;;;8.70;99.90;;;;;;4960729;28;20085;-75
2023/02/02 09:31:35;;;;;;;5.10;0.60;;;8.70;99.90;;;;;;4948685;28;20043;-68
2023/02/02 09:34:04;;;;;;;1.17;0.70;;;8.70;99.90;;;;;;4965581;28;20038;-70
2023/02/02 09:36:31;;;;;;;3.45;0.70;;;8.70;99.90;;;;;;4963552;28;20034;-70
2023/02/02 09:38:57;;;;;;;3.85;1.13;;;8.70;99.90;;;;;;4960682;28;20030;-68
2023/02/02 09:42:05;;;;;;;4.75;1.40;;;8.70;99.90;;;;;;4962733;28;20097;-70
2023/02/02 09:44:36;;;;;;;5.55;0.73;;;8.70;99.90;;;;;;4960227;28;20027;-74
2023/02/02 09:47:43;;;;;;;0.85;0.63;;;8.70;99.90;;;;;;4968785;28;20030;-69
2023/02/02 09:50:33;;;;;;;9.70;1.10;;;8.80;99.90;;;;;;4963518;28;20039;-75
2023/02/02 09:53:17;;;;;;;4.88;1.10;;;8.80;99.90;;;;;;4967232;28;20064;-70
2023/02/02 09:55:47;;;;;;;2.90;1.25;;;8.80;99.90;;;;;;4963175;28;20027;-68
2023/02/02 09:58:29;;;;;;;1.70;0.85;;;8.90;99.90;;;;;;4966332;28;20031;-69
2023/02/02 10:01:24;;;;;;;6.03;1.63;;;8.80;99.90;;;;;;4962954;28;20030;-69
2023/02/02 10:18:21;;;;;;;4.70;1.07;;;8.90;99.90;;;;;;4976801;28;20038;-72
2023/02/02 10:20:56;;;;;;;16.70;1.10;;;8.90;99.90;;;;;;4971018;28;20125;-75
2023/02/02 10:23:41;;;;;;;12.98;0.85;;;8.90;99.90;;;;;;4965315;28;20026;-71
2023/02/02 10:26:45;;;;;;;6.05;0.82;;;8.90;99.90;;;;;;4964593;28;20038;-71
2023/02/02 10:29:21;;;;;;;5.60;0.60;;;8.90;99.90;;;;;;4962536;28;20026;-71
2023/02/02 10:32:21;;;;;;;0.93;0.70;;;8.90;99.90;;;;;;4974102;28;20046;-70
2023/02/02 10:35:35;;;;;;;5.03;0.60;;;9.00;99.90;;;;;;4981573;28;20369;-71
2023/02/02 10:38:26;;;;;;;2.75;0.98;;;8.90;99.90;;;;;;4948187;29;20326;-69
2023/02/02 10:41:01;;;;;;;2.75;0.52;;;9.00;99.90;;;;;;4954851;28;20046;-71
2023/02/02 10:43:45;;;;;;;1.05;0.52;;;9.00;99.90;;;;;;4962197;28;20502;-71
2023/02/02 10:46:33;;;;;;;3.38;0.50;;;9.00;99.90;;;;;;4979375;28;20397;-72
2023/02/02 10:49:29;;;;;;;1.88;0.82;;;9.00;99.90;;;;;;4968147;28;20523;-70
2023/02/02 10:52:17;;;;;;;13.80;0.93;;;9.00;99.90;;;;;;4963899;28;20041;-71
2023/02/02 10:55:27;;;;;;;3.17;0.70;;;9.00;99.90;;;;;;4980150;28;20515;-72
2023/02/02 10:58:11;;;;;;;2.25;0.90;;;9.00;99.90;;;;;;4966487;28;20042;-71
2023/02/02 11:00:56;;;;;;;2.47;0.20;;;9.00;99.90;;;;;;4978877;28;20031;-75
2023/02/02 11:03:31;;;;;;;1.88;0.75;;;9.00;99.90;;;;;;4966273;28;20033;-73
2023/02/02 11:08:55;;;;;;;1.27;0.45;;;9.00;99.90;;;;;;4963441;28;20050;-76
2023/02/02 11:11:26;;;;;;;2.20;0.65;;;9.00;99.90;;;;;;4977972;28;20031;-71
2023/02/02 11:14:08;;;;;;;3.25;1.65;;;9.00;99.90;;;;;;4979021;28;20035;-71
2023/02/02 11:16:42;;;;;;;1.98;0.77;;;9.10;99.90;;;;;;4963842;28;20022;-73
2023/02/02 11:19:18;;;;;;;5.38;0.85;;;9.10;99.90;;;;;;4975657;28;20034;-75
2023/02/02 11:21:53;;;;;;;3.15;1.17;;;9.10;99.90;;;;;;4978842;28;20053;-71
2023/02/02 11:24:23;;;;;;;3.65;1.42;;;9.10;99.90;;;;;;4963976;28;20046;-72
2023/02/02 11:26:59;;;;;;;1.48;0.47;;;9.10;99.90;;;;;;4968320;28;20152;-72
2023/02/02 11:29:48;;;;;;;0.93;0.57;;;9.10;99.90;;;;;;4979610;28;20034;-70
2023/02/02 11:32:31;;;;;;;3.40;0.90;;;9.20;99.90;;;;;;4970993;28;20027;-72
2023/02/02 11:35:03;;;;;;;13.45;0.98;;;9.20;99.90;;;;;;4965143;28;20097;-68
2023/02/02 11:37:34;;;;;;;7.40;1.08;;;9.30;99.90;;;;;;4985110;28;20078;-72
2023/02/02 11:40:27;;;;;;;;;;;9.30;99.90;;;;;;4971024;28;20080;-72
2023/02/02 11:42:55;;;;;;;2.60;0.60;;;9.30;99.90;;;;;;4973996;28;19948;-72
2023/02/02 11:45:40;;;;;;;4.22;0.80;;;9.30;99.90;;;;;;4954088;28;20046;-70
2023/02/02 11:48:15;;;;;;;3.30;0.90;;;9.30;99.90;;;;;;4970742;28;20438;-68
2023/02/02 11:51:00;;;;;;;3.30;1.05;;;9.40;99.90;;;;;;4963205;28;20034;-68
2023/02/02 11:53:46;;;;;;;11.57;1.42;;;9.40;99.90;;;;;;4975833;28;20397;-67
2023/02/02 11:56:25;;;;;;;3.30;0.73;;;9.30;99.90;;;;;;4969741;28;20133;-67
2023/02/02 11:58:55;;;;;;;2.20;0.50;;;9.40;99.90;;;;;;4965435;28;20054;-69
2023/02/02 12:01:38;;;;;;;3.25;1.08;;;9.40;99.90;;;;;;4968825;28;20123;-70
2023/02/02 12:07:46;;;;;;;3.63;1.27;;;9.30;99.90;;;;;;4977769;28;20153;-70
2023/02/02 12:10:46;;;;;;;4.53;1.13;;;9.30;99.90;;;;;;4983189;28;20042;-70
2023/02/02 12:14:00;;;;;;;6.53;1.15;;;9.40;99.90;;;;;;4980032;28;20034;-71
2023/02/02 12:17:06;;;;;;;3.95;1.40;;;9.40;99.90;;;;;;4975807;28;20458;-70
2023/02/02 12:20:00;;;;;;;3.53;1.02;;;9.40;99.90;;;;;;4969534;28;20035;-70
2023/02/02 12:22:44;;;;;;;4.20;1.35;;;9.50;99.90;;;;;;4976674;28;20038;-70
2023/02/02 12:25:54;;;;;;;2.10;0.85;;;9.50;99.90;;;;;;4972251;28;20101;-69
2023/02/02 12:28:45;;;;;;;3.65;0.82;;;9.60;99.90;;;;;;4973230;28;20022;-68
2023/02/02 12:31:38;;;;;;;5.00;0.85;;;9.70;99.90;;;;;;4989427;28;20027;-70
2023/02/02 12:34:46;;;;;;;0.50;0.38;;;9.70;99.90;;;;;;4983894;28;20035;-70
2023/02/02 12:37:27;;;;;;;4.47;0.95;;;9.80;99.90;;;;;;4963140;28;20124;-70
2023/02/02 12:40:41;;;;;;;4.50;0.93;;;9.90;99.90;;;;;;4984117;28;20088;-70
2023/02/02 12:43:27;;;;;;;16.35;0.73;;;9.90;99.90;;;;;;4982688;28;20031;-69
2023/02/02 12:46:17;;;;;;;4.15;0.47;;;9.80;99.90;;;;;;4991581;28;20031;-70
2023/02/02 12:49:12;;;;;;;1.90;0.75;;;9.80;99.90;;;;;;4981573;28;20034;-69
2023/02/02 12:52:15;;;;;;;9.18;1.15;;;9.90;99.90;;;;;;4977786;28;20080;-69
2023/02/02 12:55:32;;;;;;;7.85;1.60;;;9.90;99.90;;;;;;4939470;29;20032;-69
2023/02/02 12:58:16;;;;;;;1.17;0.45;;;10.00;99.90;;;;;;4969428;28;20047;-69
2023/02/02 13:00:41;;;;;;;3.58;0.77;;;10.10;99.90;;;;;;4991167;28;20797;-70
2023/02/02 13:03:45;;;;;;;3.97;0.43;;;10.20;99.90;;;;;;4981677;28;20109;-70
2023/02/02 13:06:58;;;;;;;3.58;0.80;;;10.10;99.90;;;;;;4974017;28;20069;-69
2023/02/02 13:10:07;;;;;;;3.50;0.85;;;10.10;99.90;;;;;;4979668;28;20026;-69
2023/02/02 13:12:41;;;;;;;3.95;1.10;;;10.10;99.90;;;;;;4979417;28;20042;-70
2023/02/02 13:15:15;;;;;;;4.35;0.65;;;10.20;99.90;;;;;;4963702;28;20042;-69
2023/02/02 13:17:45;;;;;;;2.65;1.27;;;10.30;99.90;;;;;;4982483;28;20084;-70
2023/02/02 13:20:54;;;;;;;6.00;0.73;;;10.40;99.90;;;;;;4964057;28;20506;-70
2023/02/02 13:23:29;;;;;;;2.70;1.48;;;10.30;99.90;;;;;;4965712;28;20439;-71
2023/02/02 13:26:04;;;;;;;0.25;0.25;;;10.30;99.90;;;;;;4986361;28;20054;-71
2023/02/02 13:28:51;;;;;;;3.78;0.82;;;10.30;99.90;;;;;;4964370;28;20045;-71
2023/02/02 13:31:39;;;;;;;1.95;0.40;;;10.40;99.90;;;;;;4970697;28;20034;-71
2023/02/02 13:34:16;;;;;;;1.40;0.38;;;10.40;99.90;;;;;;4968651;28;20513;-69
2023/02/02 13:36:49;;;;;;;9.77;1.55;;;10.30;99.90;;;;;;4959100;28;20034;-71
2023/02/02 13:39:33;;;;;;;1.60;0.60;;;10.30;99.90;;;;;;4984040;28;20047;-75
2023/02/02 13:42:01;;;;;;;10.15;0.82;;;10.30;99.90;;;;;;4971064;28;20038;-71
2023/02/02 13:44:41;;;;;;;3.78;0.60;;;10.30;99.90;;;;;;4975652;28;20070;-70
2023/02/02 13:47:14;;;;;;;4.53;0.65;;;10.40;99.90;;;;;;4983690;28;20029;-70
2023/02/02 13:49:51;;;;;;;0.85;0.52;;;10.20;99.90;;;;;;4966530;28;20023;-70
2023/02/02 13:52:30;;;;;;;3.67;0.65;;;10.30;99.90;;;;;;4968882;28;20054;-70
2023/02/02 13:55:31;;;;;;;2.25;0.95;;;10.20;99.90;;;;;;4975083;28;20104;-70
2023/02/02 13:58:18;;;;;;;2.85;1.23;;;10.20;99.90;;;;;;4965731;28;20033;-70
2023/02/02 14:00:52;;;;;;;2.35;0.50;;;10.30;99.90;;;;;;4983461;28;20066;-70